Dundee, Oregon
Current Conditions -  °F | °C
As of 6:53 AM on Thursday 30 Oct 2014 (Local Time) from KMMV Reporting Station
Light Rain Light Rain  
Wind Chill: 13°   Ceiling: 9500
Heat Index: 13°   Visibility: 7mi
Dew Point: 12°   Wind: 0mph
Humidity: 93%   Direction: NA
Pressure: 29.9"   Gusts: NA
Location:  45.28°N, 123.01°W
Report Text: KMMV 301353Z AUTO 00000KT 7SM -RA SCT046 OVC095 13/12 A2990 RMK AO2 RAE1258B34 SLP123 P0002 T01330122
Loading
Personal Weather Stations






























Interactive Weather Map
Tropical Storm Tracking
New forecast layout! Learn more

10-Day Weather Forecast

Advertisements
Track Severe Weather on mobile